sensor_id;sensor_type;location;lat;lon;timestamp;P1;durP1;ratioP1;P2;durP2;ratioP2
21206;SDS011;10761;48.532;8.026;2022-12-07T00:01:39;30.10;;;19.83;;
21206;SDS011;10761;48.532;8.026;2022-12-07T00:04:07;26.52;;;18.58;;
21206;SDS011;10761;48.532;8.026;2022-12-07T00:06:36;28.95;;;18.55;;
21206;SDS011;10761;48.532;8.026;2022-12-07T00:09:04;26.27;;;18.85;;
21206;SDS011;10761;48.532;8.026;2022-12-07T00:11:31;28.13;;;19.00;;
21206;SDS011;10761;48.532;8.026;2022-12-07T00:13:58;26.50;;;19.58;;
21206;SDS011;10761;48.532;8.026;2022-12-07T00:16:26;25.73;;;19.17;;
21206;SDS011;10761;48.532;8.026;2022-12-07T00:18:54;24.15;;;18.05;;
21206;SDS011;10761;48.532;8.026;2022-12-07T00:21:38;29.33;;;18.92;;
21206;SDS011;10761;48.532;8.026;2022-12-07T00:24:04;23.92;;;18.02;;
21206;SDS011;10761;48.532;8.026;2022-12-07T00:26:34;26.52;;;18.95;;
21206;SDS011;10761;48.532;8.026;2022-12-07T00:29:03;28.98;;;20.02;;
21206;SDS011;10761;48.532;8.026;2022-12-07T00:31:32;32.10;;;21.25;;
21206;SDS011;10761;48.532;8.026;2022-12-07T00:34:03;32.90;;;22.40;;
21206;SDS011;10761;48.532;8.026;2022-12-07T00:36:29;38.00;;;23.02;;
21206;SDS011;10761;48.532;8.026;2022-12-07T00:38:55;34.55;;;21.67;;
21206;SDS011;10761;48.532;8.026;2022-12-07T00:41:23;32.17;;;21.73;;
21206;SDS011;10761;48.532;8.026;2022-12-07T00:43:51;28.30;;;20.80;;
21206;SDS011;10761;48.532;8.026;2022-12-07T00:46:17;31.25;;;21.02;;
21206;SDS011;10761;48.532;8.026;2022-12-07T00:48:44;33.63;;;21.95;;
21206;SDS011;10761;48.532;8.026;2022-12-07T00:51:10;28.48;;;20.02;;
21206;SDS011;10761;48.532;8.026;2022-12-07T00:53:37;34.00;;;22.17;;
21206;SDS011;10761;48.532;8.026;2022-12-07T00:58:59;34.15;;;20.90;;
21206;SDS011;10761;48.532;8.026;2022-12-07T01:01:27;30.20;;;20.63;;
21206;SDS011;10761;48.532;8.026;2022-12-07T01:03:55;28.90;;;20.95;;
21206;SDS011;10761;48.532;8.026;2022-12-07T01:06:21;28.65;;;19.95;;
21206;SDS011;10761;48.532;8.026;2022-12-07T01:08:48;29.00;;;20.48;;
21206;SDS011;10761;48.532;8.026;2022-12-07T01:11:15;30.00;;;20.60;;
21206;SDS011;10761;48.532;8.026;2022-12-07T01:13:43;29.20;;;19.45;;
21206;SDS011;10761;48.532;8.026;2022-12-07T01:16:10;30.13;;;20.00;;
21206;SDS011;10761;48.532;8.026;2022-12-07T01:18:38;30.42;;;19.67;;
21206;SDS011;10761;48.532;8.026;2022-12-07T01:21:05;28.38;;;19.10;;
21206;SDS011;10761;48.532;8.026;2022-12-07T01:23:36;23.58;;;17.20;;
21206;SDS011;10761;48.532;8.026;2022-12-07T01:26:03;24.52;;;17.08;;
21206;SDS011;10761;48.532;8.026;2022-12-07T01:28:30;25.02;;;18.10;;
21206;SDS011;10761;48.532;8.026;2022-12-07T01:31:00;25.00;;;18.20;;
21206;SDS011;10761;48.532;8.026;2022-12-07T01:33:35;24.85;;;18.17;;
21206;SDS011;10761;48.532;8.026;2022-12-07T01:36:14;23.88;;;17.52;;
21206;SDS011;10761;48.532;8.026;2022-12-07T01:38:41;26.30;;;17.65;;
21206;SDS011;10761;48.532;8.026;2022-12-07T01:41:08;23.05;;;16.92;;
21206;SDS011;10761;48.532;8.026;2022-12-07T01:43:34;24.10;;;16.70;;
21206;SDS011;10761;48.532;8.026;2022-12-07T01:46:01;22.88;;;16.27;;
21206;SDS011;10761;48.532;8.026;2022-12-07T01:48:30;22.25;;;16.45;;
21206;SDS011;10761;48.532;8.026;2022-12-07T01:50:59;25.73;;;16.42;;
21206;SDS011;10761;48.532;8.026;2022-12-07T01:53:28;23.38;;;17.15;;
21206;SDS011;10761;48.532;8.026;2022-12-07T01:55:55;22.60;;;16.80;;
21206;SDS011;10761;48.532;8.026;2022-12-07T01:58:22;23.80;;;17.55;;
21206;SDS011;10761;48.532;8.026;2022-12-07T02:00:49;22.40;;;17.15;;
21206;SDS011;10761;48.532;8.026;2022-12-07T02:05:48;26.08;;;17.90;;
21206;SDS011;10761;48.532;8.026;2022-12-07T02:08:16;26.58;;;17.40;;
21206;SDS011;10761;48.532;8.026;2022-12-07T02:10:42;23.88;;;17.27;;
21206;SDS011;10761;48.532;8.026;2022-12-07T02:13:21;29.25;;;17.08;;
21206;SDS011;10761;48.532;8.026;2022-12-07T02:22:09;22.35;;;15.32;;
21206;SDS011;10761;48.532;8.026;2022-12-07T02:25:14;25.98;;;16.70;;
21206;SDS011;10761;48.532;8.026;2022-12-07T02:27:46;24.23;;;15.60;;
21206;SDS011;10761;48.532;8.026;2022-12-07T02:30:22;24.50;;;16.98;;
21206;SDS011;10761;48.532;8.026;2022-12-07T02:32:55;23.20;;;15.90;;
21206;SDS011;10761;48.532;8.026;2022-12-07T02:40:42;21.45;;;16.02;;
21206;SDS011;10761;48.532;8.026;2022-12-07T02:43:13;27.20;;;17.85;;
21206;SDS011;10761;48.532;8.026;2022-12-07T02:45:51;26.10;;;17.80;;
21206;SDS011;10761;48.532;8.026;2022-12-07T02:48:20;23.70;;;17.05;;
21206;SDS011;10761;48.532;8.026;2022-12-07T02:50:50;27.90;;;16.60;;
21206;SDS011;10761;48.532;8.026;2022-12-07T03:08:06;23.13;;;16.45;;
21206;SDS011;10761;48.532;8.026;2022-12-07T03:15:28;34.47;;;24.25;;
21206;SDS011;10761;48.532;8.026;2022-12-07T03:17:58;32.58;;;23.25;;
21206;SDS011;10761;48.532;8.026;2022-12-07T03:20:25;31.17;;;22.33;;
21206;SDS011;10761;48.532;8.026;2022-12-07T03:22:54;28.70;;;20.63;;
21206;SDS011;10761;48.532;8.026;2022-12-07T03:25:20;26.42;;;18.13;;
21206;SDS011;10761;48.532;8.026;2022-12-07T03:30:34;24.88;;;18.23;;
21206;SDS011;10761;48.532;8.026;2022-12-07T03:33:11;22.00;;;15.70;;
21206;SDS011;10761;48.532;8.026;2022-12-07T03:35:47;23.85;;;16.48;;
21206;SDS011;10761;48.532;8.026;2022-12-07T03:38:48;22.52;;;15.70;;
21206;SDS011;10761;48.532;8.026;2022-12-07T03:41:27;22.15;;;15.45;;
21206;SDS011;10761;48.532;8.026;2022-12-07T03:43:55;25.35;;;16.83;;
21206;SDS011;10761;48.532;8.026;2022-12-07T03:49:11;22.60;;;16.42;;
21206;SDS011;10761;48.532;8.026;2022-12-07T03:51:51;15.82;;;11.38;;
21206;SDS011;10761;48.532;8.026;2022-12-07T03:54:40;24.80;;;16.30;;
21206;SDS011;10761;48.532;8.026;2022-12-07T03:57:13;22.55;;;15.73;;
21206;SDS011;10761;48.532;8.026;2022-12-07T03:59:39;18.80;;;14.70;;
21206;SDS011;10761;48.532;8.026;2022-12-07T04:05:34;23.35;;;14.82;;
21206;SDS011;10761;48.532;8.026;2022-12-07T04:08:00;24.10;;;16.13;;
21206;SDS011;10761;48.532;8.026;2022-12-07T04:10:26;23.38;;;15.80;;
21206;SDS011;10761;48.532;8.026;2022-12-07T04:12:51;23.13;;;15.90;;
21206;SDS011;10761;48.532;8.026;2022-12-07T04:15:17;23.45;;;16.02;;
21206;SDS011;10761;48.532;8.026;2022-12-07T04:17:43;26.02;;;16.08;;
21206;SDS011;10761;48.532;8.026;2022-12-07T04:20:09;22.52;;;16.05;;
21206;SDS011;10761;48.532;8.026;2022-12-07T04:22:35;24.58;;;17.75;;
21206;SDS011;10761;48.532;8.026;2022-12-07T04:25:00;26.15;;;16.27;;
21206;SDS011;10761;48.532;8.026;2022-12-07T04:27:26;21.30;;;15.02;;
21206;SDS011;10761;48.532;8.026;2022-12-07T04:29:52;23.65;;;15.88;;
21206;SDS011;10761;48.532;8.026;2022-12-07T04:32:17;21.38;;;15.23;;
21206;SDS011;10761;48.532;8.026;2022-12-07T04:34:43;23.50;;;15.93;;
21206;SDS011;10761;48.532;8.026;2022-12-07T04:37:08;23.38;;;16.67;;
21206;SDS011;10761;48.532;8.026;2022-12-07T04:39:34;22.52;;;15.82;;
21206;SDS011;10761;48.532;8.026;2022-12-07T04:42:00;20.80;;;15.10;;
21206;SDS011;10761;48.532;8.026;2022-12-07T04:44:26;21.67;;;15.27;;
21206;SDS011;10761;48.532;8.026;2022-12-07T04:46:53;20.70;;;14.88;;
21206;SDS011;10761;48.532;8.026;2022-12-07T04:49:20;22.23;;;15.07;;
21206;SDS011;10761;48.532;8.026;2022-12-07T04:51:46;23.95;;;14.88;;
21206;SDS011;10761;48.532;8.026;2022-12-07T04:54:12;22.58;;;15.05;;
21206;SDS011;10761;48.532;8.026;2022-12-07T04:56:39;20.50;;;14.20;;
21206;SDS011;10761;48.532;8.026;2022-12-07T04:59:05;21.75;;;14.45;;
21206;SDS011;10761;48.532;8.026;2022-12-07T05:01:31;19.35;;;14.15;;
21206;SDS011;10761;48.532;8.026;2022-12-07T05:03:57;22.30;;;14.63;;
21206;SDS011;10761;48.532;8.026;2022-12-07T05:06:23;19.90;;;14.32;;
21206;SDS011;10761;48.532;8.026;2022-12-07T05:08:49;20.15;;;13.77;;
21206;SDS011;10761;48.532;8.026;2022-12-07T05:11:15;20.02;;;14.27;;
21206;SDS011;10761;48.532;8.026;2022-12-07T05:14:00;21.85;;;15.00;;
21206;SDS011;10761;48.532;8.026;2022-12-07T05:16:27;22.25;;;15.25;;
21206;SDS011;10761;48.532;8.026;2022-12-07T05:18:53;20.50;;;14.90;;
21206;SDS011;10761;48.532;8.026;2022-12-07T05:21:19;23.85;;;16.52;;
21206;SDS011;10761;48.532;8.026;2022-12-07T05:23:45;24.70;;;16.10;;
21206;SDS011;10761;48.532;8.026;2022-12-07T05:26:10;23.95;;;16.15;;
21206;SDS011;10761;48.532;8.026;2022-12-07T05:28:36;25.67;;;16.40;;
21206;SDS011;10761;48.532;8.026;2022-12-07T05:31:02;22.83;;;15.27;;
21206;SDS011;10761;48.532;8.026;2022-12-07T05:33:28;24.58;;;15.20;;
21206;SDS011;10761;48.532;8.026;2022-12-07T05:35:53;22.15;;;15.32;;
21206;SDS011;10761;48.532;8.026;2022-12-07T05:38:19;23.48;;;15.88;;
21206;SDS011;10761;48.532;8.026;2022-12-07T05:40:45;23.65;;;15.13;;
21206;SDS011;10761;48.532;8.026;2022-12-07T05:43:10;20.90;;;15.10;;
21206;SDS011;10761;48.532;8.026;2022-12-07T05:45:36;23.38;;;14.77;;
21206;SDS011;10761;48.532;8.026;2022-12-07T05:48:01;26.05;;;15.73;;
21206;SDS011;10761;48.532;8.026;2022-12-07T05:50:27;21.02;;;14.82;;
21206;SDS011;10761;48.532;8.026;2022-12-07T05:52:53;19.45;;;13.98;;
21206;SDS011;10761;48.532;8.026;2022-12-07T05:55:18;21.10;;;14.85;;
21206;SDS011;10761;48.532;8.026;2022-12-07T05:57:44;20.48;;;14.65;;
21206;SDS011;10761;48.532;8.026;2022-12-07T06:00:30;20.45;;;13.93;;
21206;SDS011;10761;48.532;8.026;2022-12-07T06:02:55;21.30;;;14.07;;
21206;SDS011;10761;48.532;8.026;2022-12-07T06:05:21;20.75;;;14.40;;
21206;SDS011;10761;48.532;8.026;2022-12-07T06:07:47;22.20;;;14.63;;
21206;SDS011;10761;48.532;8.026;2022-12-07T06:10:12;19.30;;;12.73;;
21206;SDS011;10761;48.532;8.026;2022-12-07T06:12:38;28.20;;;14.38;;
21206;SDS011;10761;48.532;8.026;2022-12-07T06:15:04;20.67;;;13.40;;
21206;SDS011;10761;48.532;8.026;2022-12-07T06:17:30;20.40;;;13.60;;
21206;SDS011;10761;48.532;8.026;2022-12-07T06:19:56;20.88;;;14.13;;
21206;SDS011;10761;48.532;8.026;2022-12-07T06:22:22;19.20;;;13.32;;
21206;SDS011;10761;48.532;8.026;2022-12-07T06:24:48;22.15;;;13.23;;
21206;SDS011;10761;48.532;8.026;2022-12-07T06:27:13;19.13;;;12.90;;
21206;SDS011;10761;48.532;8.026;2022-12-07T06:29:39;21.55;;;13.85;;
21206;SDS011;10761;48.532;8.026;2022-12-07T06:32:05;18.02;;;13.20;;
21206;SDS011;10761;48.532;8.026;2022-12-07T06:34:31;20.05;;;13.52;;
21206;SDS011;10761;48.532;8.026;2022-12-07T06:36:56;18.95;;;13.20;;
21206;SDS011;10761;48.532;8.026;2022-12-07T06:39:23;18.45;;;13.07;;
21206;SDS011;10761;48.532;8.026;2022-12-07T06:41:51;20.40;;;14.07;;
21206;SDS011;10761;48.532;8.026;2022-12-07T06:44:17;20.85;;;13.57;;
21206;SDS011;10761;48.532;8.026;2022-12-07T06:46:43;19.20;;;13.00;;
21206;SDS011;10761;48.532;8.026;2022-12-07T06:49:09;22.83;;;14.30;;
21206;SDS011;10761;48.532;8.026;2022-12-07T06:51:34;21.75;;;14.00;;
21206;SDS011;10761;48.532;8.026;2022-12-07T06:54:02;20.08;;;13.70;;
21206;SDS011;10761;48.532;8.026;2022-12-07T06:56:28;22.02;;;13.90;;
21206;SDS011;10761;48.532;8.026;2022-12-07T06:58:54;18.10;;;13.52;;
21206;SDS011;10761;48.532;8.026;2022-12-07T07:01:20;20.23;;;14.20;;
21206;SDS011;10761;48.532;8.026;2022-12-07T07:03:46;23.45;;;14.15;;
21206;SDS011;10761;48.532;8.026;2022-12-07T07:06:12;20.40;;;14.07;;
21206;SDS011;10761;48.532;8.026;2022-12-07T07:08:39;20.95;;;14.35;;
21206;SDS011;10761;48.532;8.026;2022-12-07T07:11:05;21.75;;;14.45;;
21206;SDS011;10761;48.532;8.026;2022-12-07T07:13:32;20.35;;;13.95;;
21206;SDS011;10761;48.532;8.026;2022-12-07T07:15:58;21.70;;;14.48;;
21206;SDS011;10761;48.532;8.026;2022-12-07T07:18:24;17.83;;;12.48;;
21206;SDS011;10761;48.532;8.026;2022-12-07T07:20:50;21.63;;;13.23;;
21206;SDS011;10761;48.532;8.026;2022-12-07T07:23:17;19.05;;;13.45;;
21206;SDS011;10761;48.532;8.026;2022-12-07T07:25:43;19.40;;;13.70;;
21206;SDS011;10761;48.532;8.026;2022-12-07T07:28:09;22.23;;;13.73;;
21206;SDS011;10761;48.532;8.026;2022-12-07T07:30:35;22.95;;;14.25;;
21206;SDS011;10761;48.532;8.026;2022-12-07T07:33:01;21.33;;;13.63;;
21206;SDS011;10761;48.532;8.026;2022-12-07T07:35:29;20.05;;;13.55;;
21206;SDS011;10761;48.532;8.026;2022-12-07T07:37:55;19.52;;;13.52;;
21206;SDS011;10761;48.532;8.026;2022-12-07T07:40:21;19.23;;;12.98;;
21206;SDS011;10761;48.532;8.026;2022-12-07T07:42:48;17.55;;;12.75;;
21206;SDS011;10761;48.532;8.026;2022-12-07T07:45:14;20.42;;;13.30;;
21206;SDS011;10761;48.532;8.026;2022-12-07T07:47:40;20.42;;;13.45;;
21206;SDS011;10761;48.532;8.026;2022-12-07T07:50:06;17.23;;;12.93;;
21206;SDS011;10761;48.532;8.026;2022-12-07T07:52:32;20.15;;;12.90;;
21206;SDS011;10761;48.532;8.026;2022-12-07T07:54:57;17.63;;;11.85;;
21206;SDS011;10761;48.532;8.026;2022-12-07T07:57:23;16.77;;;12.05;;
21206;SDS011;10761;48.532;8.026;2022-12-07T07:59:48;16.35;;;12.02;;
21206;SDS011;10761;48.532;8.026;2022-12-07T08:02:15;17.80;;;12.50;;
21206;SDS011;10761;48.532;8.026;2022-12-07T08:04:42;18.73;;;11.52;;
21206;SDS011;10761;48.532;8.026;2022-12-07T08:07:08;14.80;;;10.65;;
21206;SDS011;10761;48.532;8.026;2022-12-07T08:09:34;15.20;;;10.88;;
21206;SDS011;10761;48.532;8.026;2022-12-07T08:11:59;13.70;;;10.18;;
21206;SDS011;10761;48.532;8.026;2022-12-07T08:14:25;16.23;;;11.02;;
21206;SDS011;10761;48.532;8.026;2022-12-07T08:16:52;15.48;;;10.65;;
21206;SDS011;10761;48.532;8.026;2022-12-07T08:19:18;14.15;;;9.90;;
21206;SDS011;10761;48.532;8.026;2022-12-07T08:21:43;14.90;;;10.65;;
21206;SDS011;10761;48.532;8.026;2022-12-07T08:24:09;14.32;;;10.90;;
21206;SDS011;10761;48.532;8.026;2022-12-07T08:26:35;14.88;;;10.13;;
21206;SDS011;10761;48.532;8.026;2022-12-07T08:29:00;12.60;;;9.57;;
21206;SDS011;10761;48.532;8.026;2022-12-07T08:31:26;12.23;;;9.02;;
21206;SDS011;10761;48.532;8.026;2022-12-07T08:33:52;14.45;;;9.15;;
21206;SDS011;10761;48.532;8.026;2022-12-07T08:36:18;12.38;;;8.77;;
21206;SDS011;10761;48.532;8.026;2022-12-07T08:38:46;11.77;;;8.50;;
21206;SDS011;10761;48.532;8.026;2022-12-07T08:41:12;11.80;;;8.80;;
21206;SDS011;10761;48.532;8.026;2022-12-07T08:43:37;12.23;;;8.63;;
21206;SDS011;10761;48.532;8.026;2022-12-07T08:46:06;14.00;;;9.30;;
21206;SDS011;10761;48.532;8.026;2022-12-07T08:48:36;9.85;;;7.10;;
21206;SDS011;10761;48.532;8.026;2022-12-07T08:51:06;14.48;;;9.02;;
21206;SDS011;10761;48.532;8.026;2022-12-07T08:53:32;13.82;;;8.98;;
21206;SDS011;10761;48.532;8.026;2022-12-07T08:55:58;11.65;;;8.63;;
21206;SDS011;10761;48.532;8.026;2022-12-07T08:58:25;11.25;;;8.77;;
21206;SDS011;10761;48.532;8.026;2022-12-07T09:00:51;14.20;;;9.60;;
21206;SDS011;10761;48.532;8.026;2022-12-07T09:03:17;11.95;;;8.98;;
21206;SDS011;10761;48.532;8.026;2022-12-07T09:05:42;11.30;;;8.73;;
21206;SDS011;10761;48.532;8.026;2022-12-07T09:08:08;9.82;;;7.53;;
21206;SDS011;10761;48.532;8.026;2022-12-07T09:10:34;10.13;;;7.55;;
21206;SDS011;10761;48.532;8.026;2022-12-07T09:12:59;10.07;;;7.22;;
21206;SDS011;10761;48.532;8.026;2022-12-07T09:15:26;10.98;;;7.32;;
21206;SDS011;10761;48.532;8.026;2022-12-07T09:17:52;9.98;;;7.50;;
21206;SDS011;10761;48.532;8.026;2022-12-07T09:20:18;10.95;;;8.10;;
21206;SDS011;10761;48.532;8.026;2022-12-07T09:22:44;12.30;;;8.27;;
21206;SDS011;10761;48.532;8.026;2022-12-07T09:25:09;9.23;;;7.22;;
21206;SDS011;10761;48.532;8.026;2022-12-07T09:27:35;9.75;;;7.60;;
21206;SDS011;10761;48.532;8.026;2022-12-07T09:30:01;9.30;;;6.70;;
21206;SDS011;10761;48.532;8.026;2022-12-07T09:32:27;8.65;;;7.13;;
21206;SDS011;10761;48.532;8.026;2022-12-07T09:34:53;8.20;;;6.97;;
21206;SDS011;10761;48.532;8.026;2022-12-07T09:37:21;10.80;;;7.90;;
21206;SDS011;10761;48.532;8.026;2022-12-07T09:39:47;9.50;;;7.88;;
21206;SDS011;10761;48.532;8.026;2022-12-07T09:42:26;11.20;;;8.80;;
21206;SDS011;10761;48.532;8.026;2022-12-07T09:45:33;10.77;;;8.25;;
21206;SDS011;10761;48.532;8.026;2022-12-07T09:47:58;13.48;;;9.95;;
21206;SDS011;10761;48.532;8.026;2022-12-07T09:50:25;10.32;;;7.80;;
21206;SDS011;10761;48.532;8.026;2022-12-07T09:52:53;10.18;;;7.93;;
21206;SDS011;10761;48.532;8.026;2022-12-07T09:55:29;9.48;;;7.47;;
21206;SDS011;10761;48.532;8.026;2022-12-07T09:57:55;10.00;;;6.43;;
21206;SDS011;10761;48.532;8.026;2022-12-07T10:00:23;10.32;;;7.70;;
21206;SDS011;10761;48.532;8.026;2022-12-07T10:02:56;12.82;;;8.60;;
21206;SDS011;10761;48.532;8.026;2022-12-07T10:05:26;86.38;;;48.10;;
21206;SDS011;10761;48.532;8.026;2022-12-07T10:08:00;46.05;;;27.08;;
21206;SDS011;10761;48.532;8.026;2022-12-07T10:10:30;49.10;;;29.25;;
21206;SDS011;10761;48.532;8.026;2022-12-07T10:21:12;14.57;;;10.38;;
21206;SDS011;10761;48.532;8.026;2022-12-07T10:24:04;13.10;;;9.63;;
21206;SDS011;10761;48.532;8.026;2022-12-07T10:31:40;10.80;;;8.65;;
21206;SDS011;10761;48.532;8.026;2022-12-07T10:34:08;10.90;;;7.90;;
21206;SDS011;10761;48.532;8.026;2022-12-07T10:36:47;9.07;;;7.38;;
21206;SDS011;10761;48.532;8.026;2022-12-07T10:41:55;8.60;;;6.80;;
21206;SDS011;10761;48.532;8.026;2022-12-07T10:44:24;8.02;;;7.03;;
21206;SDS011;10761;48.532;8.026;2022-12-07T10:46:54;12.48;;;8.35;;
21206;SDS011;10761;48.532;8.026;2022-12-07T10:52:18;9.57;;;7.13;;
21206;SDS011;10761;48.532;8.026;2022-12-07T11:00:43;6.90;;;5.57;;
21206;SDS011;10761;48.532;8.026;2022-12-07T11:03:23;8.77;;;7.20;;
21206;SDS011;10761;48.532;8.026;2022-12-07T11:09:03;10.18;;;8.02;;
21206;SDS011;10761;48.532;8.026;2022-12-07T11:11:51;11.20;;;6.80;;
21206;SDS011;10761;48.532;8.026;2022-12-07T11:15:04;7.43;;;5.90;;
21206;SDS011;10761;48.532;8.026;2022-12-07T11:18:12;7.50;;;5.82;;
21206;SDS011;10761;48.532;8.026;2022-12-07T11:26:05;8.95;;;6.20;;
21206;SDS011;10761;48.532;8.026;2022-12-07T11:31:10;7.55;;;6.18;;
21206;SDS011;10761;48.532;8.026;2022-12-07T11:33:47;9.07;;;7.20;;
21206;SDS011;10761;48.532;8.026;2022-12-07T11:39:26;9.75;;;7.57;;
21206;SDS011;10761;48.532;8.026;2022-12-07T11:42:04;14.32;;;9.45;;
21206;SDS011;10761;48.532;8.026;2022-12-07T11:55:03;8.43;;;6.40;;
21206;SDS011;10761;48.532;8.026;2022-12-07T11:57:41;9.23;;;6.40;;
21206;SDS011;10761;48.532;8.026;2022-12-07T12:00:12;9.55;;;6.90;;
21206;SDS011;10761;48.532;8.026;2022-12-07T12:05:32;6.97;;;5.88;;
21206;SDS011;10761;48.532;8.026;2022-12-07T12:13:47;7.90;;;6.10;;
21206;SDS011;10761;48.532;8.026;2022-12-07T12:22:13;8.43;;;5.75;;
21206;SDS011;10761;48.532;8.026;2022-12-07T12:24:43;7.40;;;6.10;;
21206;SDS011;10761;48.532;8.026;2022-12-07T12:27:22;7.22;;;5.20;;
21206;SDS011;10761;48.532;8.026;2022-12-07T12:29:55;7.07;;;4.72;;
21206;SDS011;10761;48.532;8.026;2022-12-07T12:37:53;8.27;;;5.95;;
21206;SDS011;10761;48.532;8.026;2022-12-07T12:42:53;8.13;;;5.18;;
21206;SDS011;10761;48.532;8.026;2022-12-07T12:47:56;6.82;;;4.80;;
21206;SDS011;10761;48.532;8.026;2022-12-07T12:50:44;5.88;;;4.78;;
21206;SDS011;10761;48.532;8.026;2022-12-07T13:00:44;7.70;;;5.68;;
21206;SDS011;10761;48.532;8.026;2022-12-07T13:03:22;8.13;;;5.50;;
21206;SDS011;10761;48.532;8.026;2022-12-07T13:08:56;6.97;;;5.38;;
21206;SDS011;10761;48.532;8.026;2022-12-07T13:11:29;6.80;;;5.60;;
21206;SDS011;10761;48.532;8.026;2022-12-07T13:17:12;5.43;;;4.90;;
21206;SDS011;10761;48.532;8.026;2022-12-07T13:19:56;6.68;;;5.05;;
21206;SDS011;10761;48.532;8.026;2022-12-07T13:25:38;4.10;;;3.70;;
21206;SDS011;10761;48.532;8.026;2022-12-07T13:27:47;5.05;;;4.10;;
21206;SDS011;10761;48.532;8.026;2022-12-07T13:30:23;5.55;;;4.38;;
21206;SDS011;10761;48.532;8.026;2022-12-07T13:32:56;5.50;;;4.32;;
21206;SDS011;10761;48.532;8.026;2022-12-07T13:38:04;5.18;;;4.25;;
21206;SDS011;10761;48.532;8.026;2022-12-07T13:40:40;6.40;;;4.40;;
21206;SDS011;10761;48.532;8.026;2022-12-07T13:43:12;5.57;;;4.50;;
21206;SDS011;10761;48.532;8.026;2022-12-07T13:45:41;6.60;;;4.97;;
21206;SDS011;10761;48.532;8.026;2022-12-07T13:48:21;6.82;;;5.05;;
21206;SDS011;10761;48.532;8.026;2022-12-07T13:50:58;5.40;;;4.63;;
21206;SDS011;10761;48.532;8.026;2022-12-07T13:53:26;5.47;;;4.68;;
21206;SDS011;10761;48.532;8.026;2022-12-07T13:55:56;6.60;;;4.90;;
21206;SDS011;10761;48.532;8.026;2022-12-07T13:58:23;6.57;;;5.00;;
21206;SDS011;10761;48.532;8.026;2022-12-07T14:00:50;6.63;;;5.10;;
21206;SDS011;10761;48.532;8.026;2022-12-07T14:05:41;7.18;;;4.97;;
21206;SDS011;10761;48.532;8.026;2022-12-07T14:10:41;8.70;;;5.70;;
21206;SDS011;10761;48.532;8.026;2022-12-07T14:13:31;7.18;;;5.15;;
21206;SDS011;10761;48.532;8.026;2022-12-07T14:16:01;6.15;;;5.45;;
21206;SDS011;10761;48.532;8.026;2022-12-07T14:21:14;6.80;;;5.80;;
21206;SDS011;10761;48.532;8.026;2022-12-07T14:23:45;8.35;;;6.40;;
21206;SDS011;10761;48.532;8.026;2022-12-07T14:26:27;10.40;;;7.90;;
21206;SDS011;10761;48.532;8.026;2022-12-07T14:28:52;11.10;;;8.40;;
21206;SDS011;10761;48.532;8.026;2022-12-07T14:31:38;12.00;;;8.48;;
21206;SDS011;10761;48.532;8.026;2022-12-07T14:34:03;9.57;;;7.22;;
21206;SDS011;10761;48.532;8.026;2022-12-07T14:36:29;10.05;;;6.53;;
21206;SDS011;10761;48.532;8.026;2022-12-07T14:38:55;7.65;;;6.43;;
21206;SDS011;10761;48.532;8.026;2022-12-07T14:41:23;7.93;;;6.35;;
21206;SDS011;10761;48.532;8.026;2022-12-07T14:44:11;11.00;;;7.45;;
21206;SDS011;10761;48.532;8.026;2022-12-07T14:46:37;10.25;;;6.97;;
21206;SDS011;10761;48.532;8.026;2022-12-07T14:49:03;8.75;;;7.40;;
21206;SDS011;10761;48.532;8.026;2022-12-07T14:51:28;10.40;;;8.23;;
21206;SDS011;10761;48.532;8.026;2022-12-07T14:53:54;10.30;;;6.88;;
21206;SDS011;10761;48.532;8.026;2022-12-07T14:56:20;10.70;;;8.35;;
21206;SDS011;10761;48.532;8.026;2022-12-07T14:58:45;12.98;;;9.82;;
21206;SDS011;10761;48.532;8.026;2022-12-07T15:01:13;12.18;;;8.95;;
21206;SDS011;10761;48.532;8.026;2022-12-07T15:03:38;9.77;;;7.80;;
21206;SDS011;10761;48.532;8.026;2022-12-07T15:06:04;10.18;;;7.38;;
21206;SDS011;10761;48.532;8.026;2022-12-07T15:08:31;8.30;;;7.10;;
21206;SDS011;10761;48.532;8.026;2022-12-07T15:10:57;10.40;;;8.05;;
21206;SDS011;10761;48.532;8.026;2022-12-07T15:13:23;10.25;;;8.30;;
21206;SDS011;10761;48.532;8.026;2022-12-07T15:16:08;10.80;;;7.82;;
21206;SDS011;10761;48.532;8.026;2022-12-07T15:18:37;10.30;;;8.00;;
21206;SDS011;10761;48.532;8.026;2022-12-07T15:21:03;11.07;;;7.97;;
21206;SDS011;10761;48.532;8.026;2022-12-07T15:23:29;10.85;;;8.80;;
21206;SDS011;10761;48.532;8.026;2022-12-07T15:25:54;10.63;;;8.77;;
21206;SDS011;10761;48.532;8.026;2022-12-07T15:28:20;20.45;;;15.45;;
21206;SDS011;10761;48.532;8.026;2022-12-07T15:30:45;20.75;;;14.18;;
21206;SDS011;10761;48.532;8.026;2022-12-07T15:33:12;18.38;;;12.93;;
21206;SDS011;10761;48.532;8.026;2022-12-07T15:35:41;23.45;;;16.85;;
21206;SDS011;10761;48.532;8.026;2022-12-07T15:38:09;32.95;;;20.80;;
21206;SDS011;10761;48.532;8.026;2022-12-07T15:40:35;18.80;;;12.05;;
21206;SDS011;10761;48.532;8.026;2022-12-07T15:43:01;19.23;;;13.02;;
21206;SDS011;10761;48.532;8.026;2022-12-07T15:45:27;18.25;;;13.07;;
21206;SDS011;10761;48.532;8.026;2022-12-07T15:47:53;19.40;;;12.50;;
21206;SDS011;10761;48.532;8.026;2022-12-07T15:50:20;21.10;;;13.38;;
21206;SDS011;10761;48.532;8.026;2022-12-07T15:52:46;17.98;;;12.88;;
21206;SDS011;10761;48.532;8.026;2022-12-07T15:55:12;20.70;;;13.07;;
21206;SDS011;10761;48.532;8.026;2022-12-07T15:57:38;21.20;;;13.82;;
21206;SDS011;10761;48.532;8.026;2022-12-07T16:00:04;22.08;;;13.98;;
21206;SDS011;10761;48.532;8.026;2022-12-07T16:02:33;20.77;;;14.23;;
21206;SDS011;10761;48.532;8.026;2022-12-07T16:04:59;20.15;;;14.43;;
21206;SDS011;10761;48.532;8.026;2022-12-07T16:07:27;20.20;;;13.63;;
21206;SDS011;10761;48.532;8.026;2022-12-07T16:09:53;18.33;;;13.07;;
21206;SDS011;10761;48.532;8.026;2022-12-07T16:12:31;23.73;;;14.45;;
21206;SDS011;10761;48.532;8.026;2022-12-07T16:15:08;24.73;;;14.55;;
21206;SDS011;10761;48.532;8.026;2022-12-07T16:17:34;26.75;;;15.07;;
21206;SDS011;10761;48.532;8.026;2022-12-07T16:20:00;18.92;;;13.95;;
21206;SDS011;10761;48.532;8.026;2022-12-07T16:22:25;21.98;;;15.00;;
21206;SDS011;10761;48.532;8.026;2022-12-07T16:24:51;21.30;;;14.55;;
21206;SDS011;10761;48.532;8.026;2022-12-07T16:27:16;22.05;;;13.82;;
21206;SDS011;10761;48.532;8.026;2022-12-07T16:29:42;19.88;;;13.88;;
21206;SDS011;10761;48.532;8.026;2022-12-07T16:32:08;21.95;;;14.65;;
21206;SDS011;10761;48.532;8.026;2022-12-07T16:34:33;26.90;;;20.10;;
21206;SDS011;10761;48.532;8.026;2022-12-07T16:36:59;20.55;;;14.32;;
21206;SDS011;10761;48.532;8.026;2022-12-07T16:39:24;23.23;;;15.50;;
21206;SDS011;10761;48.532;8.026;2022-12-07T16:41:50;21.85;;;14.75;;
21206;SDS011;10761;48.532;8.026;2022-12-07T16:44:17;24.98;;;16.10;;
21206;SDS011;10761;48.532;8.026;2022-12-07T16:46:43;28.95;;;17.25;;
21206;SDS011;10761;48.532;8.026;2022-12-07T16:49:11;25.38;;;15.93;;
21206;SDS011;10761;48.532;8.026;2022-12-07T16:51:37;21.80;;;15.02;;
21206;SDS011;10761;48.532;8.026;2022-12-07T16:54:04;21.15;;;15.07;;
21206;SDS011;10761;48.532;8.026;2022-12-07T16:56:29;24.77;;;16.42;;
21206;SDS011;10761;48.532;8.026;2022-12-07T16:58:57;26.95;;;17.10;;
21206;SDS011;10761;48.532;8.026;2022-12-07T17:01:23;24.27;;;16.60;;
21206;SDS011;10761;48.532;8.026;2022-12-07T17:03:49;22.58;;;15.43;;
21206;SDS011;10761;48.532;8.026;2022-12-07T17:06:16;21.73;;;15.45;;